Latest Coastal Weather Observations for Whyalla

IDS60701

Issued at 11:01 pm CDT Monday 27 March 2017 (issued every 10 minutes, with the page automatically refreshed every 10 minutes)

About coastal observations | Map of coastal stations | Coastal observations for SA | Marine services | Other Formats
Station Details ID: 018120 Name: WHYALLA AERO Lat: -33.05 Lon: 137.52 Height: 9.3 m
Data from the previous 72 hours. | See also: Recent months at Whyalla
Date/Time
CDT
Temp
°C
Wind Pressure Rain since
9am
mm
Weather Cloud Vis
km
Sea
Height
m
Swell
Dir  Spd
kts
Gust
kts
hPa Trend Height
m
Period
s
Dir
27/11:00pm 19.3 S 7 9 1016.9 - 0.0 - Partly cloudy 10 - - - -
27/10:30pm 19.2 S 6 8 1016.9 - 0.0 - - 10 - - - -
27/10:00pm 19.4 SSW 8 9 1016.7 - 0.0 - - 10 - - - -
27/09:30pm 20.0 SSW 9 12 1016.5 - 0.0 - - 10 - - - -
27/09:00pm 20.1 SSW 8 10 1016.3 - 0.0 - - 10 - - - -
27/08:30pm 20.5 S 9 12 1016.1 - 0.0 - - 10 - - - -
27/08:00pm 20.7 S 9 13 1015.8 - 0.0 - - 10 - - - -
27/07:30pm 20.9 S 10 14 1015.5 - 0.0 - - 10 - - - -
27/07:00pm 21.5 S 13 17 1015.4 - 0.0 - - 10 - - - -
27/06:30pm 22.0 SSE 11 15 1015.2 - 0.0 - - 10 - - - -
27/06:00pm 22.4 SSE 12 17 1014.9 - 0.0 - - 10 - - - -
27/05:30pm 23.1 SSE 14 18 1014.6 - 0.0 - - 10 - - - -
27/05:00pm 23.0 SSE 14 20 1014.5 - 0.0 - - 10 - - - -
27/04:30pm 23.6 SE 14 21 1014.3 - 0.0 - - 10 - - - -
27/04:00pm 23.9 SSE 15 22 1014.4 - 0.0 - - 10 - - - -
27/03:30pm 23.6 SSE 16 24 1014.5 - 0.0 - - 10 - - - -
27/03:00pm 23.4 SSE 16 20 1014.5 - 0.0 - - 10 - - - -
27/02:30pm 24.0 SSE 16 21 1014.7 - 0.0 - - 10 - - - -
27/02:00pm 24.2 SSE 16 22 1015.0 - 0.0 - - 10 - - - -
27/01:30pm 24.1 SSE 16 23 1015.2 - 0.0 - - 10 - - - -
27/01:00pm 24.6 S 16 21 1015.5 - 0.0 - - 10 - - - -
27/12:30pm 25.1 S 15 21 1015.7 - 0.0 - - 10 - - - -
27/12:00pm 24.1 S 15 21 1015.6 - 0.0 - - 10 - - - -
27/11:30am 24.1 SSW 14 19 1015.7 - 0.0 - Partly cloudy 10 - - - -
27/11:00am 24.8 SSW 13 21 1015.5 - 0.0 - Partly cloudy 10 - - - -
27/10:30am 24.0 S 12 16 1015.1 - 0.0 - Partly cloudy 10 - - - -
27/10:00am 23.6 SW 11 15 1014.7 - 0.0 - Partly cloudy 10 - - - -
27/09:30am 23.2 SW 7 11 1014.3 - 0.0 - Partly cloudy 10 - - - -
27/09:00am 22.6 SW 7 9 1014.3 - 0.0 - - 10 - - - -
27/08:30am 22.1 SW 6 8 1013.9 - 0.0 - - 10 - - - -
27/08:00am 21.4 SW 7 10 1013.6 - 0.0 - - 10 - - - -
27/07:30am 21.3 SW 7 9 1013.1 - 0.0 - - 10 - - - -
27/07:00am 22.0 WSW 9 11 1012.3 - 0.0 - - 10 - - - -
27/06:30am 22.5 SW 10 15 1011.9 - 0.0 - - 10 - - - -
27/06:00am 22.8 SW 11 14 1011.0 - 0.0 - Mostly cloudy 10 - - - -
27/05:30am 23.1 SSW 10 15 1010.8 - 0.0 - - 10 - - - -
27/05:00am 23.8 SW 14 19 1009.2 - 0.0 - - 10 - - - -
27/04:30am 24.6 WSW 15 19 1008.8 - 0.0 - - 10 - - - -
27/04:00am 26.8 WSW 16 22 1007.3 - 0.0 - - 10 - - - -
27/03:30am 28.9 WSW 13 20 1006.6 - 0.0 - - 10 - - - -
27/03:00am 32.3 WNW 16 25 1005.7 - 0.0 - Partly cloudy 10 - - - -
27/02:57am 33.5 NW 13 25 1005.5 - 0.0 - - 10 - - - -
27/02:30am 32.7 NW 14 27 1005.0 - 0.0 - - 10 - - - -
27/02:22am 32.4 NNW 15 27 1005.4 - 0.0 - - 10 - - - -
27/02:00am 33.5 N 13 18 1004.1 - 0.0 - - 10 - - - -
27/01:30am 33.2 N 13 16 1004.2 - 0.0 - - 10 - - - -
27/01:00am 32.7 N 11 15 1004.4 - 0.0 - - 10 - - - -
27/12:30am 32.6 N 10 12 1004.3 - 0.0 - - 10 - - - -
27/12:00am 32.7 N 9 11 1004.6 - 0.0 - - 10 - - - -
 
Date/Time
CDT
Temp
°C
Wind Pressure Rain since
9am
mm
Weather Cloud Vis
km
Sea
Height
m
Swell
Dir  Spd
kts
Gust
kts
hPa Trend Height
m
Period
s
Dir
26/11:30pm 31.5 N 7 10 1005.0 - 0.0 - - 10 - - - -
26/11:00pm 31.0 N 7 9 1005.3 - 0.0 - - 10 - - - -
26/10:30pm 30.6 N 7 8 1005.6 - 0.0 - - 10 - - - -
26/10:00pm 32.5 NNW 9 11 1005.8 - 0.0 - - 10 - - - -
26/09:30pm 30.5 WNW 7 8 1005.5 - 0.0 - - 10 - - - -
26/09:00pm 34.2 N 8 10 1005.4 - 0.0 - - 10 - - - -
26/08:30pm 33.4 N 8 9 1005.3 - 0.0 - - 10 - - - -
26/08:00pm 31.0 NNE 5 7 1005.1 - 0.0 - - 10 - - - -
26/07:30pm 31.4 ESE 3 5 1004.7 - 0.0 - - 10 - - - -
26/07:00pm 34.9 SE 4 6 1004.6 - 0.0 - - 10 - - - -
26/06:30pm 35.5 E 6 9 1004.3 - 0.0 - - 10 - - - -
26/06:00pm 36.3 E 7 10 1004.4 - 0.0 - - 10 - - - -
26/05:30pm 35.7 E 11 15 1004.7 - 0.0 - - 10 - - - -
26/05:00pm 35.6 E 8 10 1004.9 - 0.0 - - 10 - - - -
26/04:30pm 34.6 ESE 8 11 1005.1 - 0.0 - - 10 - - - -
26/04:00pm 35.0 ESE 10 13 1005.4 - 0.0 - - 10 - - - -
26/03:30pm 34.8 ESE 9 12 1005.9 - 0.0 - - 10 - - - -
26/03:00pm 34.6 ESE 8 10 1006.4 - 0.0 - - 10 - - - -
26/02:30pm 33.4 SE 7 10 1007.0 - 0.0 - - 10 - - - -
26/02:00pm 32.4 SSE 8 10 1007.7 - 0.0 - - 10 - - - -
26/01:30pm 32.3 SE 8 10 1008.5 - 0.0 - - 10 - - - -
26/01:00pm 31.2 ESE 7 10 1008.9 - 0.0 - - 10 - - - -
26/12:30pm 30.8 SE 6 9 1009.5 - 0.0 - - 10 - - - -
26/12:00pm 29.0 SSE 9 12 1010.1 - 0.0 - - 10 - - - -
26/11:30am 29.4 SE 7 9 1010.2 - 0.0 - - 10 - - - -
26/11:00am 30.1 SE 7 10 1010.5 - 0.0 - - 10 - - - -
26/10:30am 30.9 NNE 5 8 1010.5 - 0.0 - - 10 - - - -
26/10:00am 28.4 N 7 9 1010.2 - 0.0 - - 10 - - - -
26/09:30am 25.9 NNW 5 8 1010.6 - 0.0 - - 10 - - - -
26/09:00am 23.3 WNW 1 3 1010.8 - 0.0 - - 10 - - - -
26/08:30am 21.9 WSW 5 7 1011.0 - 0.0 - - 10 - - - -
26/08:00am 20.6 WSW 3 8 1010.8 - 0.0 - - 10 - - - -
26/07:30am 20.2 N 9 10 1010.4 - 0.0 - - 10 - - - -
26/07:00am 19.9 CALM 0 0 1011.3 - 0.0 - - 10 - - - -
26/06:30am 20.6 SSW 1 3 1011.5 - 0.0 - - 10 - - - -
26/06:00am 20.5 SSW 7 8 1011.5 - 0.0 - Mostly clear 10 - - - -
26/05:30am 21.0 SSW 3 4 1011.1 - 0.0 - - 10 - - - -
26/05:00am 21.0 SSW 7 8 1011.3 - 0.0 - - 10 - - - -
26/04:30am 20.9 SSW 5 6 1011.4 - 0.0 - - 10 - - - -
26/04:00am 20.7 SSW 4 5 1011.6 - 0.0 - - 10 - - - -
26/03:30am 21.0 S 4 4 1011.7 - 0.0 - - 10 - - - -
26/03:00am 21.4 S 5 7 1011.9 - 0.0 - Cloudy 10 - - - -
26/02:30am 21.4 SSW 5 7 1012.1 - 0.0 - - 10 - - - -
26/02:00am 21.5 SSW 5 5 1012.4 - 0.0 - - 10 - - - -
26/01:30am 22.0 SSW 5 7 1012.6 - 0.0 - - 10 - - - -
26/01:00am 22.3 SSW 6 8 1012.9 - 0.0 - - 10 - - - -
26/12:30am 22.8 SSW 9 12 1013.1 - 0.0 - - 10 - - - -
26/12:00am 22.9 SSW 9 11 1013.4 - 0.0 - Partly cloudy 10 - - - -
 
Date/Time
CDT
Temp
°C
Wind Pressure Rain since
9am
mm
Weather Cloud Vis
km
Sea
Height
m
Swell
Dir  Spd
kts
Gust
kts
hPa Trend Height
m
Period
s
Dir
25/11:30pm 23.3 SSW 10 13 1013.5 - 0.0 - - 10 - - - -
25/11:00pm 23.2 SSW 11 14 1013.6 - 0.0 - - 10 - - - -
25/10:30pm 23.3 SSW 11 14 1013.5 - 0.0 - - 10 - - - -
25/10:00pm 23.5 SSW 10 14 1013.6 - 0.0 - - 10 - - - -
25/09:30pm 23.5 SSW 9 13 1013.2 - 0.0 - - 10 - - - -
25/09:00pm 23.5 S 9 11 1012.8 - 0.0 - Mostly cloudy 10 - - - -
25/08:30pm 23.6 S 7 10 1012.9 - 0.0 - - 10 - - - -
25/08:00pm 23.7 S 8 11 1012.6 - 0.0 - - 10 - - - -
25/07:30pm 23.8 S 10 13 1012.4 - 0.0 - - 10 - - - -
25/07:00pm 24.0 S 11 15 1012.4 - 0.0 - - 10 - - - -
25/06:30pm 24.5 S 12 16 1012.2 - 0.0 - - 10 - - - -
25/06:00pm 24.6 S 12 16 1012.0 - 0.0 - Cloudy 10 - - - -
25/05:30pm 25.1 S 13 17 1011.9 - 0.0 - - 10 - - - -
25/05:00pm 25.9 S 15 19 1011.9 - 0.0 - - 10 - - - -
25/04:30pm 26.4 SSW 15 20 1011.9 - 0.0 - - 10 - - - -
25/04:00pm 26.0 SSW 18 24 1011.7 - 0.0 - - 10 - - - -
25/03:30pm 25.7 SSW 20 24 1011.7 - 0.0 - - 10 - - - -
25/03:00pm 26.6 S 19 24 1011.9 - 0.0 - Cloudy 10 - - - -
25/02:30pm 26.3 S 16 21 1012.2 - 0.0 - - 10 - - - -
25/02:00pm 25.8 S 14 18 1012.6 - 0.0 - - 10 - - - -
25/01:30pm 25.7 S 13 17 1012.9 - 0.0 - - 10 - - - -
25/01:00pm 25.8 SSE 11 16 1013.0 - 0.0 - - 10 - - - -
25/12:30pm 25.7 SSE 12 17 1013.2 - 0.0 - - 10 - - - -
25/12:00pm 25.4 SSE 11 15 1013.6 - 0.0 - Mostly cloudy 10 - - - -
25/11:30am 25.5 SSE 12 16 1013.8 - 0.0 - - 10 - - - -
25/11:00am 24.9 SSE 13 18 1013.9 - 0.0 - - 10 - - - -
25/10:30am 24.7 S 12 17 1013.8 - 0.0 - - 10 - - - -
25/10:00am 24.3 S 10 13 1013.5 - 0.0 - - 10 - - - -
25/09:30am 23.8 S 11 14 1013.2 - 0.0 - Partly cloudy 10 - - - -
25/09:20am 23.4 S 10 15 1013.0 - 0.0 - Partly cloudy 10 - - - -
25/09:07am 22.9 SSW 9 12 1012.8 - 0.0 - Partly cloudy 10 - - - -
25/09:00am 23.2 SSW 5 10 1012.7 - 0.0 - Mostly clear 10 - - - -
25/08:30am 19.9 WSW 4 6 1012.5 - 0.0 - - 10 - - - -
25/08:00am 17.9 W 6 7 1012.2 - 0.0 - - 10 - - - -
25/07:30am 17.6 NNW 6 6 1011.6 - 0.0 - - 10 - - - -
25/07:00am 18.1 WNW 4 5 1011.5 - 0.0 - - 10 - - - -
25/06:30am 18.5 CALM 0 3 1011.6 - 0.0 - - 10 - - - -
25/06:00am 19.5 CALM 0 0 1011.5 - 0.0 - - 10 - - - -
25/05:30am 20.1 SSW 1 3 1011.7 - 0.0 - - 10 - - - -
25/05:00am 20.1 SSW 4 5 1011.4 - 0.0 - - 10 - - - -
25/04:30am 20.5 SSW 3 5 1011.1 - 0.0 - - 10 - - - -
25/04:00am 21.2 SSW 8 10 1011.0 - 0.0 - - 10 - - - -
25/03:30am 21.3 SSW 8 10 1011.2 - 0.0 - - 10 - - - -
25/03:00am 21.0 SSW 7 8 1011.3 - 0.0 - - 10 - - - -
25/02:30am 19.7 SW 5 6 1011.5 - 0.0 - - 10 - - - -
25/02:00am 20.0 CALM 0 0 1011.7 - 0.0 - - 10 - - - -
25/01:30am 20.5 CALM 0 0 1011.8 - 0.0 - - 10 - - - -
25/01:00am 21.1 SSW 6 7 1012.1 - 0.0 - - 10 - - - -
25/12:30am 21.7 S 3 4 1012.3 - 0.0 - - 10 - - - -
25/12:00am 22.7 CALM 0 3 1012.4 - 0.0 - - 10 - - - -
 
Date/Time
CDT
Temp
°C
Wind Pressure Rain since
9am
mm
Weather Cloud Vis
km
Sea
Height
m
Swell
Dir  Spd
kts
Gust
kts
hPa Trend Height
m
Period
s
Dir
24/11:30pm 23.1 SSW 6 8 1012.5 - 0.0 - - 10 - - - -

Other Formats:

Comma delimited format used in spreadsheet applications
http://www.bom.gov.au/fwo/IDS60701/IDS60701.95664.axf

JavaScript Object Notation format (JSON) in row-major order
http://www.bom.gov.au/fwo/IDS60701/IDS60701.95664.json